Time;durP1;ratioP1;P1;durP2;ratioP2;P2;SDS_P1;SDS_P2;PMS_P1;PMS_P2;Temp;Humidity;BMP_temperature;BMP_pressure;BME280_temperature;BME280_humidity;BME280_pressure;Samples;Min_cycle;Max_cycle;Signal;HPM_P1;HPM_P2
2022/05/28 00:00:30;;;;;;;10.60;2.20;;;15.10;30.80;;;;;;4951155;29;20538;-79
2022/05/28 00:02:57;;;;;;;8.00;2.10;;;15.00;31.10;;;;;;4937686;29;20479;-79
2022/05/28 00:05:26;;;;;;;5.30;2.40;;;15.00;30.90;;;;;;4937824;29;20535;-78
2022/05/28 00:07:53;;;;;;;5.00;2.10;;;15.00;31.10;;;;;;4937399;29;20429;-79
2022/05/28 00:10:20;;;;;;;3.80;2.10;;;15.00;31.10;;;;;;4937151;29;20549;-79
2022/05/28 00:12:48;;;;;;;3.77;2.20;;;14.90;31.00;;;;;;4937757;29;20458;-82
2022/05/28 00:15:15;;;;;;;6.13;2.20;;;14.90;31.20;;;;;;4937296;29;20469;-79
2022/05/28 00:17:42;;;;;;;7.47;2.30;;;14.90;31.40;;;;;;4941206;29;20452;-79
2022/05/28 00:20:10;;;;;;;5.77;2.23;;;14.90;31.40;;;;;;4937107;29;20441;-79
2022/05/28 00:22:40;;;;;;;6.20;2.50;;;14.90;31.20;;;;;;4937454;29;20461;-78
2022/05/28 00:25:10;;;;;;;8.23;2.30;;;14.90;31.30;;;;;;4937262;29;20497;-79
2022/05/28 00:27:37;;;;;;;6.70;2.20;;;14.90;31.60;;;;;;4940166;29;20469;-81
2022/05/28 00:30:05;;;;;;;5.03;2.73;;;14.90;31.70;;;;;;4944259;29;20465;-79
2022/05/28 00:32:33;;;;;;;9.47;2.60;;;14.80;31.70;;;;;;4947235;29;20433;-79
2022/05/28 00:35:00;;;;;;;5.87;2.30;;;14.70;32.00;;;;;;4945464;29;20892;-82
2022/05/28 00:37:27;;;;;;;5.45;1.80;;;14.70;31.80;;;;;;4945420;29;20463;-81
2022/05/28 00:39:55;;;;;;;4.43;2.53;;;14.70;31.90;;;;;;4951863;29;20213;-80
2022/05/28 00:42:22;;;;;;;4.20;1.70;;;14.60;31.90;;;;;;4945928;29;20478;-79
2022/05/28 00:44:49;;;;;;;8.70;1.90;;;14.60;32.10;;;;;;4940219;29;20462;-79
2022/05/28 00:47:18;;;;;;;4.70;2.47;;;14.50;32.40;;;;;;4947585;29;20518;-79
2022/05/28 00:49:45;;;;;;;3.97;1.87;;;14.40;32.80;;;;;;4944205;29;20441;-79
2022/05/28 00:52:12;;;;;;;4.70;2.00;;;14.40;33.40;;;;;;4943820;29;20492;-81
2022/05/28 00:54:43;;;;;;;11.57;2.47;;;14.30;33.50;;;;;;4946505;29;20223;-80
2022/05/28 00:57:13;;;;;;;3.80;1.97;;;14.20;33.40;;;;;;4952190;29;20512;-79
2022/05/28 00:59:40;;;;;;;5.40;2.30;;;14.20;33.40;;;;;;4954077;29;20442;-77
2022/05/28 01:02:16;;;;;;;6.47;2.13;;;14.10;33.30;;;;;;4954120;29;20609;-78
2022/05/28 01:04:51;;;;;;;4.50;1.83;;;14.00;33.20;;;;;;4949879;29;20504;-79
2022/05/28 01:07:29;;;;;;;5.18;2.20;;;14.00;33.20;;;;;;4959907;28;20434;-80
2022/05/28 01:10:02;;;;;;;5.97;1.65;;;13.90;33.70;;;;;;4958760;28;20234;-80
2022/05/28 01:12:38;;;;;;;5.97;2.17;;;13.80;34.20;;;;;;4958649;29;20231;-80
2022/05/28 01:15:09;;;;;;;7.90;2.28;;;13.80;34.60;;;;;;4957325;28;20199;-78
2022/05/28 01:17:42;;;;;;;7.70;1.95;;;13.80;34.50;;;;;;4956934;29;20215;-79
2022/05/28 01:20:13;;;;;;;8.38;2.03;;;13.70;34.50;;;;;;4945387;29;20230;-79
2022/05/28 01:23:10;;;;;;;7.53;2.10;;;13.70;34.60;;;;;;4948907;29;20245;-80
2022/05/28 01:25:55;;;;;;;7.18;1.90;;;13.70;35.10;;;;;;4949649;29;20226;-82
2022/05/28 01:28:27;;;;;;;4.80;2.10;;;13.70;35.00;;;;;;4956975;29;20235;-81
2022/05/28 01:30:55;;;;;;;4.30;1.83;;;13.60;35.00;;;;;;4946628;29;20436;-79
2022/05/28 01:33:23;;;;;;;5.72;2.50;;;13.60;35.80;;;;;;4957101;29;20262;-82
2022/05/28 01:35:52;;;;;;;6.40;2.20;;;13.60;35.10;;;;;;4957300;29;20233;-78
2022/05/28 01:38:20;;;;;;;4.43;2.17;;;13.50;34.80;;;;;;4956659;29;20211;-79
2022/05/28 01:40:49;;;;;;;6.03;1.98;;;13.50;35.40;;;;;;4942922;29;20687;-79
2022/05/28 01:43:19;;;;;;;4.70;1.90;;;13.50;35.50;;;;;;4938878;29;20226;-80
2022/05/28 01:45:50;;;;;;;8.07;2.20;;;13.50;35.50;;;;;;4951255;29;20206;-79
2022/05/28 01:48:19;;;;;;;4.30;1.50;;;13.40;34.80;;;;;;4954359;29;20273;-78
2022/05/28 01:50:49;;;;;;;6.57;2.05;;;13.40;34.70;;;;;;4952815;29;20217;-80
2022/05/28 01:56:02;;;;;;;11.82;1.80;;;13.40;35.00;;;;;;4949204;29;20656;-78
2022/05/28 01:58:29;;;;;;;4.00;1.70;;;13.30;34.60;;;;;;4947883;29;20214;-79
2022/05/28 02:21:21;;;;;;;7.40;1.48;;;13.10;32.30;;;;;;5233541;23;20242;-78
2022/05/28 02:23:56;;;;;;;3.78;1.30;;;13.10;32.30;;;;;;4993100;28;20296;-78
2022/05/28 02:26:28;;;;;;;2.83;1.55;;;13.10;32.30;;;;;;4978849;28;20216;-78
2022/05/28 02:28:57;;;;;;;3.42;1.60;;;13.10;32.30;;;;;;4985070;28;20197;-78
2022/05/28 02:31:28;;;;;;;8.18;1.25;;;13.10;32.30;;;;;;4995566;28;20247;-79
2022/05/28 02:33:55;;;;;;;6.55;1.60;;;13.00;32.20;;;;;;4995829;28;20315;-80
2022/05/28 02:36:24;;;;;;;6.35;1.40;;;13.10;32.30;;;;;;4987540;28;20643;-78
2022/05/28 02:38:51;;;;;;;7.25;1.55;;;13.00;32.20;;;;;;4980662;28;20209;-78
2022/05/28 02:41:20;;;;;;;5.03;1.92;;;13.00;32.20;;;;;;4983018;28;20235;-77
2022/05/28 02:43:47;;;;;;;6.22;1.70;;;12.90;33.00;;;;;;4987525;28;20646;-78
2022/05/28 02:46:13;;;;;;;4.10;1.38;;;12.90;33.40;;;;;;4990748;28;20388;-79
2022/05/28 02:48:41;;;;;;;3.58;1.40;;;12.90;33.70;;;;;;4999534;28;20240;-79
2022/05/28 02:51:09;;;;;;;4.82;2.08;;;12.80;33.90;;;;;;4995969;28;20551;-80
2022/05/28 02:53:38;;;;;;;8.27;1.60;;;12.80;34.10;;;;;;4988489;28;20229;-80
2022/05/28 02:56:06;;;;;;;4.00;1.50;;;12.70;34.10;;;;;;4984917;28;20292;-80
2022/05/28 02:58:33;;;;;;;10.50;2.00;;;12.60;34.10;;;;;;4987884;28;20233;-81
2022/05/28 03:01:02;;;;;;;7.95;1.63;;;12.60;34.30;;;;;;4995811;28;20216;-80
2022/05/28 03:03:33;;;;;;;5.38;1.70;;;12.60;34.40;;;;;;4997958;28;20289;-77
2022/05/28 03:06:00;;;;;;;5.18;1.50;;;12.70;34.40;;;;;;4971648;29;20241;-79
2022/05/28 03:08:26;;;;;;;4.72;2.17;;;12.60;34.60;;;;;;4971953;29;20214;-78
2022/05/28 03:10:55;;;;;;;6.78;1.75;;;12.60;34.90;;;;;;4973191;29;20301;-79
2022/05/28 03:13:22;;;;;;;8.10;1.65;;;12.50;35.10;;;;;;4964358;28;20598;-78
2022/05/28 03:15:48;;;;;;;4.47;1.42;;;12.40;35.20;;;;;;4963398;29;20240;-78
2022/05/28 03:18:15;;;;;;;3.78;1.60;;;12.40;35.50;;;;;;4967473;29;20210;-78
2022/05/28 03:20:43;;;;;;;3.88;1.75;;;12.30;35.70;;;;;;4956949;28;20218;-78
2022/05/28 03:23:10;;;;;;;7.03;1.77;;;12.20;35.80;;;;;;4957402;28;20241;-78
2022/05/28 03:25:37;;;;;;;8.20;1.20;;;12.20;36.10;;;;;;4963115;29;20237;-78
2022/05/28 03:28:06;;;;;;;3.90;1.48;;;12.10;37.20;;;;;;4977863;29;20205;-78
2022/05/28 03:30:33;;;;;;;3.78;1.45;;;12.00;36.70;;;;;;4981061;29;20201;-79
2022/05/28 03:32:59;;;;;;;10.35;2.40;;;12.00;36.30;;;;;;4980989;28;20214;-80
2022/05/28 03:35:26;;;;;;;6.15;1.95;;;11.90;36.50;;;;;;4980927;29;20190;-81
2022/05/28 03:37:53;;;;;;;2.65;1.75;;;11.90;36.60;;;;;;4980836;29;20217;-81
2022/05/28 03:40:20;;;;;;;9.55;2.03;;;11.80;37.00;;;;;;4981082;29;20182;-80
2022/05/28 03:42:47;;;;;;;6.20;2.63;;;11.80;37.20;;;;;;4980853;28;20274;-82
2022/05/28 03:45:15;;;;;;;5.38;2.08;;;11.80;37.60;;;;;;4980462;29;20253;-82
2022/05/28 03:47:42;;;;;;;8.25;1.92;;;11.80;37.80;;;;;;4979909;29;20280;-80
2022/05/28 03:50:10;;;;;;;6.18;2.35;;;11.80;37.70;;;;;;4979601;29;20202;-80
2022/05/28 03:52:37;;;;;;;4.82;1.80;;;11.70;37.80;;;;;;4980213;29;20194;-79
2022/05/28 03:55:04;;;;;;;10.80;2.53;;;11.70;37.80;;;;;;4979847;29;20229;-79
2022/05/28 03:57:33;;;;;;;4.63;1.40;;;11.70;38.00;;;;;;4975301;29;20194;-78
2022/05/28 04:00:01;;;;;;;5.22;1.42;;;11.70;37.70;;;;;;4974387;28;20213;-78
2022/05/28 04:02:29;;;;;;;6.43;2.10;;;11.70;38.50;;;;;;4991909;28;20256;-79
2022/05/28 04:04:56;;;;;;;2.42;2.10;;;11.70;38.30;;;;;;4978311;28;20236;-79
2022/05/28 04:07:23;;;;;;;6.32;2.15;;;11.70;38.10;;;;;;4978887;28;20209;-78
2022/05/28 04:09:50;;;;;;;3.10;1.50;;;11.80;38.00;;;;;;4991323;28;20213;-79
2022/05/28 04:12:17;;;;;;;6.82;2.05;;;11.80;38.00;;;;;;4990440;28;20209;-79
2022/05/28 04:14:44;;;;;;;4.35;1.77;;;11.80;38.00;;;;;;4985138;28;20233;-79
2022/05/28 04:17:12;;;;;;;4.80;1.25;;;11.90;37.80;;;;;;4991250;28;20227;-78
2022/05/28 04:19:40;;;;;;;3.55;1.38;;;11.90;37.70;;;;;;4991466;28;20205;-79
2022/05/28 04:22:08;;;;;;;5.35;1.50;;;12.00;37.40;;;;;;4988639;28;20213;-80
2022/05/28 04:24:35;;;;;;;4.97;1.23;;;12.10;37.30;;;;;;4987133;28;20229;-79
2022/05/28 04:27:02;;;;;;;3.70;1.58;;;12.20;36.90;;;;;;4987075;28;20245;-80
2022/05/28 04:29:29;;;;;;;8.95;1.90;;;12.30;36.60;;;;;;4987548;28;20228;-78
2022/05/28 04:31:56;;;;;;;7.15;1.73;;;12.40;37.00;;;;;;4986055;28;20272;-79
2022/05/28 04:34:23;;;;;;;8.20;1.80;;;12.60;36.90;;;;;;4995420;28;20213;-79
2022/05/28 04:36:51;;;;;;;7.18;2.20;;;12.70;36.40;;;;;;4996867;28;20232;-79
2022/05/28 04:39:18;;;;;;;5.90;1.90;;;12.80;35.70;;;;;;4997607;28;20196;-79
2022/05/28 04:41:45;;;;;;;5.10;1.73;;;12.80;35.70;;;;;;4997692;28;20205;-79
2022/05/28 04:44:12;;;;;;;6.70;1.95;;;12.90;35.40;;;;;;4996933;28;20365;-80
2022/05/28 04:46:39;;;;;;;5.38;1.80;;;12.80;35.40;;;;;;4996496;28;20268;-83
2022/05/28 04:49:06;;;;;;;3.38;1.60;;;12.90;35.20;;;;;;4997702;28;20196;-79
2022/05/28 04:51:33;;;;;;;5.72;1.58;;;12.90;34.80;;;;;;4997689;28;20269;-80
2022/05/28 04:54:01;;;;;;;5.70;1.70;;;13.00;34.80;;;;;;4996026;28;20235;-81
2022/05/28 04:56:28;;;;;;;3.50;1.65;;;13.10;35.00;;;;;;4995579;28;20205;-82
2022/05/28 04:58:55;;;;;;;4.75;1.65;;;13.30;34.20;;;;;;4995003;28;20247;-79
2022/05/28 05:01:24;;;;;;;6.28;1.42;;;13.30;34.80;;;;;;4991007;28;20201;-81
2022/05/28 05:03:51;;;;;;;1.93;1.20;;;13.50;34.20;;;;;;4989729;28;20246;-79
2022/05/28 05:06:18;;;;;;;4.93;1.70;;;14.10;33.30;;;;;;4989890;28;20465;-80
2022/05/28 05:08:45;;;;;;;3.10;1.40;;;14.50;33.20;;;;;;4989397;28;20236;-79
2022/05/28 05:11:14;;;;;;;3.40;1.23;;;14.90;31.30;;;;;;4983345;28;20461;-79
2022/05/28 05:13:41;;;;;;;9.00;1.70;;;14.70;31.60;;;;;;4977555;28;20502;-79
2022/05/28 05:16:09;;;;;;;6.70;1.70;;;14.40;32.80;;;;;;4979980;28;20424;-80
2022/05/28 05:18:36;;;;;;;2.10;1.27;;;14.80;31.30;;;;;;4985141;28;20437;-79
2022/05/28 05:21:03;;;;;;;5.90;1.40;;;14.80;31.50;;;;;;4987271;28;20456;-79
2022/05/28 05:23:30;;;;;;;2.90;1.20;;;15.30;30.60;;;;;;4985273;28;20256;-81
2022/05/28 05:25:57;;;;;;;5.40;1.90;;;15.70;29.80;;;;;;4980254;28;20552;-79
2022/05/28 05:28:25;;;;;;;3.30;1.50;;;16.30;29.30;;;;;;4976844;28;20431;-79
2022/05/28 05:30:52;;;;;;;3.50;1.13;;;15.90;29.30;;;;;;4976914;28;20529;-79
2022/05/28 05:33:18;;;;;;;3.57;1.40;;;16.00;29.20;;;;;;4977842;28;20492;-80
2022/05/28 05:35:45;;;;;;;5.90;1.60;;;16.40;28.50;;;;;;4982990;28;20468;-80
2022/05/28 05:38:12;;;;;;;5.60;1.00;;;16.70;28.00;;;;;;4979126;28;20518;-81
2022/05/28 05:40:39;;;;;;;3.27;1.20;;;17.30;26.90;;;;;;4977213;28;20456;-79
2022/05/28 05:43:07;;;;;;;5.47;1.47;;;17.20;26.90;;;;;;4978912;28;20538;-80
2022/05/28 05:45:35;;;;;;;4.63;1.67;;;17.40;25.90;;;;;;4982554;28;20450;-79
2022/05/28 05:48:02;;;;;;;4.57;1.20;;;17.20;26.40;;;;;;4985171;28;20468;-78
2022/05/28 05:50:31;;;;;;;2.73;1.33;;;17.70;25.50;;;;;;4989993;28;20447;-80
2022/05/28 05:52:58;;;;;;;4.20;1.20;;;18.20;24.30;;;;;;4986202;28;20483;-80
2022/05/28 05:55:25;;;;;;;3.10;1.27;;;18.30;23.90;;;;;;4983857;28;20495;-79
2022/05/28 05:57:52;;;;;;;4.77;1.77;;;18.30;24.50;;;;;;4979122;28;20484;-80
2022/05/28 06:00:19;;;;;;;2.43;1.10;;;18.60;23.70;;;;;;4980720;28;20446;-79
2022/05/28 06:02:48;;;;;;;4.67;1.13;;;18.40;23.70;;;;;;4980344;28;20749;-80
2022/05/28 06:05:15;;;;;;;7.40;2.03;;;18.20;24.10;;;;;;4981355;28;20499;-79
2022/05/28 06:07:41;;;;;;;2.70;1.20;;;17.80;24.20;;;;;;4984605;28;20491;-79
2022/05/28 06:10:10;;;;;;;4.30;1.20;;;17.90;24.90;;;;;;4985802;28;20808;-80
2022/05/28 06:12:37;;;;;;;2.23;1.30;;;17.90;24.40;;;;;;4982028;28;20467;-81
2022/05/28 06:15:04;;;;;;;3.40;1.03;;;18.40;23.30;;;;;;4978719;28;20435;-79
2022/05/28 06:17:33;;;;;;;2.20;1.10;;;18.70;22.10;;;;;;4981097;28;20439;-81
2022/05/28 06:20:01;;;;;;;3.37;1.60;;;17.80;22.90;;;;;;4982945;28;20504;-81
2022/05/28 06:22:28;;;;;;;4.07;1.20;;;17.90;23.30;;;;;;4981036;28;20459;-79
2022/05/28 06:24:56;;;;;;;3.63;0.97;;;18.30;22.70;;;;;;4979557;28;20458;-79
2022/05/28 06:27:23;;;;;;;2.50;1.07;;;18.60;22.50;;;;;;4980983;28;20558;-80
2022/05/28 06:29:49;;;;;;;3.63;1.23;;;18.30;23.20;;;;;;4983158;28;20460;-81
2022/05/28 06:32:16;;;;;;;3.93;1.37;;;18.90;21.70;;;;;;4997260;28;20466;-79
2022/05/28 06:34:43;;;;;;;3.43;1.20;;;18.80;22.10;;;;;;4999364;28;20491;-83
2022/05/28 06:37:13;;;;;;;4.60;1.10;;;18.70;21.70;;;;;;4999752;28;20448;-82
2022/05/28 06:39:40;;;;;;;3.40;1.80;;;18.90;21.70;;;;;;4999839;28;20477;-79
2022/05/28 06:42:07;;;;;;;3.43;1.10;;;18.70;22.60;;;;;;4998680;28;20515;-82
2022/05/28 06:44:34;;;;;;;4.13;1.17;;;18.30;22.40;;;;;;4999609;28;20457;-80
2022/05/28 06:47:03;;;;;;;4.73;1.30;;;18.00;23.40;;;;;;4996629;28;20467;-81
2022/05/28 06:49:30;;;;;;;5.97;1.17;;;18.20;22.80;;;;;;4981084;28;20468;-82
2022/05/28 06:51:56;;;;;;;5.17;1.20;;;18.70;21.70;;;;;;4981273;28;20460;-79
2022/05/28 06:54:25;;;;;;;3.97;1.57;;;17.80;23.20;;;;;;4979800;28;20459;-78
2022/05/28 06:56:52;;;;;;;3.40;1.30;;;16.90;24.30;;;;;;4980560;28;20469;-79
2022/05/28 06:59:19;;;;;;;2.77;1.10;;;16.50;25.00;;;;;;4981777;28;20435;-81
2022/05/28 07:01:45;;;;;;;4.10;1.23;;;16.10;24.80;;;;;;4982778;28;20487;-80
2022/05/28 07:04:12;;;;;;;2.23;1.07;;;16.00;26.00;;;;;;4982643;28;20473;-82
2022/05/28 07:06:39;;;;;;;4.80;1.50;;;15.90;25.90;;;;;;4983447;28;20488;-79
2022/05/28 07:09:06;;;;;;;4.73;1.40;;;15.70;25.80;;;;;;4982525;28;20460;-80
2022/05/28 07:11:34;;;;;;;2.70;1.70;;;15.60;25.70;;;;;;4982073;28;20452;-81
2022/05/28 07:14:01;;;;;;;4.87;0.97;;;15.70;25.80;;;;;;4981729;28;20576;-83
2022/05/28 07:16:28;;;;;;;7.10;1.43;;;15.80;25.90;;;;;;4980147;28;20435;-79
2022/05/28 07:18:55;;;;;;;1.70;0.90;;;15.30;25.50;;;;;;4980579;28;20455;-78
2022/05/28 07:21:22;;;;;;;4.35;1.25;;;15.40;25.60;;;;;;4980532;28;20472;-81
2022/05/28 07:23:49;;;;;;;2.70;1.10;;;15.40;25.60;;;;;;4981521;28;20235;-82
2022/05/28 07:26:18;;;;;;;4.27;1.07;;;15.60;25.70;;;;;;4979410;28;20438;-78
2022/05/28 07:28:46;;;;;;;3.53;1.00;;;15.40;25.60;;;;;;4982443;28;20541;-79
2022/05/28 07:31:15;;;;;;;4.20;1.10;;;15.20;26.30;;;;;;4988205;28;20490;-84
2022/05/28 07:33:44;;;;;;;2.30;0.83;;;15.30;25.80;;;;;;4995195;28;20842;-79
2022/05/28 07:36:13;;;;;;;3.73;1.00;;;15.40;25.60;;;;;;4982987;28;20493;-82
2022/05/28 07:38:41;;;;;;;5.53;1.30;;;15.40;25.60;;;;;;4991912;28;20431;-80
2022/05/28 07:41:11;;;;;;;5.53;1.23;;;15.60;25.70;;;;;;4989570;28;20435;-79
2022/05/28 07:43:38;;;;;;;2.70;1.10;;;15.70;25.80;;;;;;4979709;28;20482;-81
2022/05/28 07:46:12;;;;;;;3.70;1.07;;;15.80;25.90;;;;;;4993308;28;20447;-80
2022/05/28 07:48:39;;;;;;;3.30;0.80;;;15.80;25.20;;;;;;5004802;28;20436;-78
2022/05/28 07:51:06;;;;;;;3.40;1.40;;;15.80;25.60;;;;;;5003492;28;20513;-82
2022/05/28 07:53:33;;;;;;;2.87;1.37;;;15.70;25.80;;;;;;4997759;28;20446;-79
2022/05/28 07:56:02;;;;;;;4.00;1.13;;;15.80;25.90;;;;;;4984728;28;20468;-82
2022/05/28 07:58:32;;;;;;;4.27;1.20;;;15.80;25.90;;;;;;4983991;28;20435;-83
2022/05/28 08:00:59;;;;;;;2.87;1.40;;;16.00;26.00;;;;;;4984502;28;20510;-80
2022/05/28 08:03:29;;;;;;;3.47;1.27;;;16.00;26.00;;;;;;4983630;28;20836;-78
2022/05/28 08:05:56;;;;;;;3.23;2.13;;;16.10;26.10;;;;;;4994849;28;20445;-79
2022/05/28 08:08:26;;;;;;;2.20;1.20;;;16.00;26.00;;;;;;4993111;28;20452;-80
2022/05/28 08:10:54;;;;;;;5.00;1.37;;;16.10;26.10;;;;;;4991282;28;20449;-84
2022/05/28 08:13:23;;;;;;;5.83;1.37;;;16.20;26.10;;;;;;4994409;28;20448;-81
2022/05/28 08:15:52;;;;;;;5.47;1.10;;;16.30;26.20;;;;;;4991954;28;20438;-81
2022/05/28 08:18:23;;;;;;;4.53;1.50;;;16.30;26.20;;;;;;4991804;28;20531;-82
2022/05/28 08:23:40;;;;;;;4.43;1.20;;;16.30;26.80;;;;;;4982394;28;20937;-81
2022/05/28 08:26:07;;;;;;;3.30;1.33;;;16.40;26.30;;;;;;4980574;28;20461;-84
2022/05/28 08:28:36;;;;;;;2.20;1.13;;;16.50;26.40;;;;;;4981109;28;20888;-79
2022/05/28 08:31:03;;;;;;;3.63;1.43;;;16.80;25.80;;;;;;4980827;28;20420;-83
2022/05/28 08:33:30;;;;;;;2.83;1.20;;;16.90;25.70;;;;;;4980531;28;20480;-79
2022/05/28 08:35:59;;;;;;;6.23;1.37;;;17.20;24.80;;;;;;4984206;28;20495;-79
2022/05/28 08:38:27;;;;;;;4.10;1.10;;;17.10;24.90;;;;;;4988595;28;20594;-78
2022/05/28 08:40:58;;;;;;;3.40;1.30;;;16.80;25.50;;;;;;4990393;28;20453;-79
2022/05/28 08:43:29;;;;;;;6.57;1.87;;;16.60;25.70;;;;;;4989985;28;20478;-81
2022/05/28 08:45:56;;;;;;;2.40;1.30;;;16.40;26.30;;;;;;4988534;28;20435;-80
2022/05/28 08:48:28;;;;;;;3.80;1.00;;;16.90;24.80;;;;;;4985709;28;20462;-79
2022/05/28 08:51:01;;;;;;;3.80;1.40;;;17.30;24.40;;;;;;4984243;28;20468;-80
2022/05/28 08:53:33;;;;;;;4.87;1.33;;;17.80;24.30;;;;;;4986519;28;20561;-82
2022/05/28 08:56:02;;;;;;;4.40;1.50;;;18.10;23.60;;;;;;4988643;28;20484;-81
2022/05/28 08:58:31;;;;;;;1.70;1.20;;;18.20;22.70;;;;;;4994736;28;20477;-80
2022/05/28 09:01:04;;;;;;;3.13;1.10;;;18.00;23.20;;;;;;4993562;28;20484;-79
2022/05/28 09:03:39;;;;;;;1.77;1.13;;;17.60;24.50;;;;;;4992849;28;20471;-81
2022/05/28 09:06:12;;;;;;;4.83;1.07;;;17.80;24.40;;;;;;4993431;28;20462;-79
2022/05/28 09:08:41;;;;;;;3.30;1.27;;;17.70;24.30;;;;;;4995733;28;20508;-82
2022/05/28 09:11:14;;;;;;;5.57;1.30;;;18.10;23.70;;;;;;4995931;28;20476;-83
2022/05/28 09:13:45;;;;;;;5.07;1.77;;;18.30;23.40;;;;;;4990834;28;20457;-81
2022/05/28 09:16:22;;;;;;;3.87;1.40;;;18.40;23.70;;;;;;4992241;28;20425;-81
2022/05/28 09:18:50;;;;;;;3.67;1.13;;;18.30;23.90;;;;;;4996949;28;20436;-79
2022/05/28 09:21:19;;;;;;;3.47;1.23;;;17.70;24.70;;;;;;5000037;28;20435;-81
2022/05/28 09:23:50;;;;;;;3.10;1.17;;;17.50;25.40;;;;;;5000519;28;20497;-85
2022/05/28 09:26:23;;;;;;;7.63;1.60;;;17.90;24.90;;;;;;5001128;28;20470;-84
2022/05/28 09:29:02;;;;;;;4.33;1.40;;;18.00;24.60;;;;;;5000961;28;20448;-84
2022/05/28 09:31:46;;;;;;;3.37;1.43;;;17.40;25.10;;;;;;5001246;28;20482;-81
2022/05/28 09:34:25;;;;;;;2.60;1.57;;;18.20;24.50;;;;;;5001635;28;20488;-83
2022/05/28 09:37:02;;;;;;;6.97;1.60;;;18.60;22.90;;;;;;4990047;28;20474;-77
2022/05/28 09:39:41;;;;;;;4.23;1.40;;;18.70;22.80;;;;;;4984216;28;20427;-79
2022/05/28 09:42:18;;;;;;;3.17;1.20;;;18.30;22.90;;;;;;4986579;28;20460;-81
2022/05/28 09:45:06;;;;;;;5.07;1.23;;;18.00;23.60;;;;;;4996000;28;20458;-84
2022/05/28 09:47:44;;;;;;;3.17;1.67;;;17.60;24.10;;;;;;4997625;28;20404;-79
2022/05/28 09:50:19;;;;;;;2.33;1.40;;;17.60;24.80;;;;;;4999018;28;20403;-82
2022/05/28 09:55:42;;;;;;;4.07;1.50;;;17.90;24.40;;;;;;4992726;28;20439;-80
2022/05/28 09:58:21;;;;;;;2.50;1.10;;;18.20;24.00;;;;;;4994652;28;20467;-81
2022/05/28 10:00:50;;;;;;;6.17;1.50;;;18.50;23.10;;;;;;4996147;28;20435;-82
2022/05/28 10:06:14;;;;;;;4.00;1.30;;;18.40;21.10;;;;;;4994797;28;20439;-80
2022/05/28 10:08:42;;;;;;;7.00;1.53;;;18.70;21.00;;;;;;4990137;28;20453;-78
2022/05/28 10:11:15;;;;;;;3.77;1.50;;;18.90;20.40;;;;;;4989699;28;20811;-80
2022/05/28 10:13:44;;;;;;;1.93;1.00;;;19.00;19.90;;;;;;4988058;28;20480;-80
2022/05/28 10:16:11;;;;;;;1.93;1.03;;;19.40;19.10;;;;;;4985891;28;20764;-80
2022/05/28 10:18:42;;;;;;;2.67;1.00;;;19.30;20.70;;;;;;4984564;28;20454;-80
2022/05/28 10:21:13;;;;;;;5.30;1.17;;;19.30;18.60;;;;;;4980875;28;20529;-81
2022/05/28 10:23:43;;;;;;;3.10;1.20;;;19.20;19.30;;;;;;4982459;28;20602;-80
2022/05/28 10:26:18;;;;;;;2.17;1.10;;;18.90;19.90;;;;;;4982106;28;20442;-79
2022/05/28 10:28:49;;;;;;;3.37;1.27;;;18.70;19.70;;;;;;4981939;28;20478;-80
2022/05/28 10:31:17;;;;;;;1.90;0.90;;;19.20;19.10;;;;;;4980839;28;20471;-78
2022/05/28 10:33:46;;;;;;;2.73;1.17;;;19.50;17.70;;;;;;4982977;28;20443;-81
2022/05/28 10:36:17;;;;;;;1.10;0.90;;;19.40;18.10;;;;;;4989532;28;20464;-80
2022/05/28 10:38:46;;;;;;;4.37;1.30;;;18.80;19.80;;;;;;4991153;28;20508;-80
2022/05/28 10:41:20;;;;;;;1.40;1.17;;;18.70;19.70;;;;;;4993601;28;20492;-80
2022/05/28 10:43:47;;;;;;;3.07;1.00;;;19.00;19.90;;;;;;4995024;28;20531;-81
2022/05/28 10:46:29;;;;;;;3.77;1.27;;;19.30;19.10;;;;;;4985173;28;20486;-78
2022/05/28 10:49:08;;;;;;;3.43;1.30;;;19.50;19.20;;;;;;4982032;28;20492;-79
2022/05/28 10:51:49;;;;;;;3.80;1.00;;;20.00;17.90;;;;;;4983902;28;20457;-80
2022/05/28 10:54:41;;;;;;;1.57;1.00;;;19.70;18.40;;;;;;4985580;28;20455;-78
2022/05/28 10:57:31;;;;;;;2.60;1.23;;;19.40;19.00;;;;;;4984681;28;20461;-77
2022/05/28 11:00:07;;;;;;;7.50;1.33;;;19.50;18.40;;;;;;4986263;28;20488;-80
2022/05/28 11:03:25;;;;;;;5.63;1.10;;;19.30;18.40;;;;;;4981711;28;20456;-78
2022/05/28 11:06:12;;;;;;;2.83;1.03;;;19.10;19.70;;;;;;4868321;29;20470;-79
2022/05/28 11:08:46;;;;;;;3.50;1.50;;;19.20;20.10;;;;;;4968771;28;20471;-78
2022/05/28 11:11:36;;;;;;;3.40;1.30;;;19.50;19.40;;;;;;4978532;28;20496;-80
2022/05/28 11:14:32;;;;;;;3.90;1.33;;;19.40;19.30;;;;;;4980017;28;20466;-80
2022/05/28 11:17:16;;;;;;;2.10;1.20;;;19.50;18.80;;;;;;4979427;28;20453;-79
2022/05/28 11:19:57;;;;;;;4.93;1.30;;;19.50;18.80;;;;;;4978791;28;20472;-78
2022/05/28 11:22:58;;;;;;;2.80;0.90;;;19.50;18.80;;;;;;4977666;28;20766;-77
2022/05/28 11:25:39;;;;;;;2.30;1.20;;;19.50;19.20;;;;;;4978641;28;20471;-76
2022/05/28 11:28:26;;;;;;;6.60;1.63;;;19.70;19.10;;;;;;4978351;28;20506;-77
2022/05/28 11:30:57;;;;;;;1.70;1.07;;;19.90;18.60;;;;;;4979577;28;20476;-78
2022/05/28 11:33:30;;;;;;;2.43;1.23;;;19.70;18.80;;;;;;4986746;28;20487;-77
2022/05/28 11:36:01;;;;;;;2.70;1.20;;;19.50;19.40;;;;;;4982359;28;20435;-78
2022/05/28 11:38:36;;;;;;;2.87;1.30;;;19.60;19.40;;;;;;4969331;28;20464;-79
2022/05/28 11:41:09;;;;;;;2.50;1.20;;;19.50;19.30;;;;;;4978935;28;20534;-76
2022/05/28 11:43:44;;;;;;;3.23;1.27;;;19.60;19.40;;;;;;4978466;28;20792;-77
2022/05/28 11:46:21;;;;;;;1.97;1.17;;;19.60;19.30;;;;;;4979080;28;20448;-78
2022/05/28 11:51:47;;;;;;;3.87;1.20;;;19.50;20.30;;;;;;4980379;28;20444;-79
2022/05/28 11:54:20;;;;;;;2.27;1.07;;;19.50;19.30;;;;;;4978551;28;20487;-77
2022/05/28 11:56:50;;;;;;;1.70;1.03;;;19.80;19.30;;;;;;4977935;28;20449;-77
2022/05/28 11:59:23;;;;;;;2.10;0.97;;;19.90;18.90;;;;;;4979871;28;20449;-78
2022/05/28 12:01:54;;;;;;;4.43;1.90;;;20.40;17.70;;;;;;4977967;28;20439;-77
2022/05/28 12:04:30;;;;;;;3.20;1.27;;;19.90;17.80;;;;;;5101455;27;20541;-78
2022/05/28 12:07:02;;;;;;;4.80;1.13;;;20.00;18.50;;;;;;5095285;28;20447;-78
2022/05/28 12:09:32;;;;;;;1.60;1.00;;;20.50;17.10;;;;;;5095728;28;20475;-79
2022/05/28 12:12:14;;;;;;;1.90;0.80;;;20.50;16.40;;;;;;5096276;28;20460;-79
2022/05/28 12:14:47;;;;;;;3.13;1.17;;;20.50;16.40;;;;;;5094397;28;20992;-77
2022/05/28 12:17:25;;;;;;;2.40;1.20;;;20.70;16.60;;;;;;5096546;22;20834;-76
2022/05/28 12:19:56;;;;;;;4.03;1.30;;;21.00;17.10;;;;;;5057773;28;20432;-76
2022/05/28 12:22:29;;;;;;;4.73;1.00;;;20.90;16.50;;;;;;5048185;28;20453;-76
2022/05/28 12:24:58;;;;;;;1.97;1.13;;;20.80;17.00;;;;;;5049864;28;20948;-76
2022/05/28 12:27:27;;;;;;;2.93;1.00;;;20.70;16.10;;;;;;5048634;28;20473;-78
2022/05/28 12:30:01;;;;;;;2.77;1.10;;;20.30;15.50;;;;;;5050119;28;20519;-76
2022/05/28 12:32:30;;;;;;;4.60;1.00;;;20.30;15.10;;;;;;5048714;28;21043;-76
2022/05/28 12:35:00;;;;;;;2.60;1.17;;;20.40;15.40;;;;;;5045359;28;20465;-77
2022/05/28 12:37:32;;;;;;;1.80;1.03;;;20.50;16.20;;;;;;5049981;28;20457;-77
2022/05/28 12:40:26;;;;;;;2.60;0.90;;;21.10;15.00;;;;;;5051332;28;20433;-76
2022/05/28 12:42:54;;;;;;;4.93;1.00;;;21.10;14.50;;;;;;5051255;28;20484;-78
2022/05/28 12:45:36;;;;;;;2.47;1.10;;;20.70;16.10;;;;;;5051506;28;20504;-77
2022/05/28 12:48:14;;;;;;;2.70;1.10;;;20.70;15.30;;;;;;5034691;28;20951;-77
2022/05/28 12:50:59;;;;;;;9.00;1.27;;;20.60;16.30;;;;;;5051901;28;20432;-79
2022/05/28 12:53:28;;;;;;;1.67;0.90;;;20.30;16.90;;;;;;5044576;28;20436;-78
2022/05/28 12:56:03;;;;;;;1.63;0.97;;;19.70;17.40;;;;;;5049750;28;20866;-77
2022/05/28 12:58:33;;;;;;;5.00;1.03;;;19.80;17.60;;;;;;5050525;28;20523;-76
2022/05/28 13:01:02;;;;;;;3.60;1.37;;;19.80;17.50;;;;;;5049493;28;20461;-76
2022/05/28 13:03:33;;;;;;;1.70;0.80;;;20.00;17.70;;;;;;5052436;28;20571;-79
2022/05/28 13:06:09;;;;;;;2.43;1.00;;;20.60;16.40;;;;;;5054625;28;20964;-77
2022/05/28 13:08:41;;;;;;;3.23;0.90;;;20.80;15.90;;;;;;5049265;28;20462;-76
2022/05/28 13:11:22;;;;;;;2.20;0.97;;;21.00;15.50;;;;;;5045005;28;20795;-77
2022/05/28 13:14:13;;;;;;;1.30;1.13;;;21.40;14.70;;;;;;5044252;28;20420;-76
2022/05/28 13:17:05;;;;;;;2.47;1.00;;;21.50;15.40;;;;;;5034410;28;20925;-76
2022/05/28 13:19:51;;;;;;;3.23;0.80;;;21.10;15.00;;;;;;5035569;28;20425;-76
2022/05/28 13:22:42;;;;;;;2.77;1.00;;;20.80;15.50;;;;;;5030601;28;20467;-76
2022/05/28 13:25:40;;;;;;;1.30;1.00;;;20.30;17.30;;;;;;5031517;28;20426;-76
2022/05/28 13:28:46;;;;;;;2.83;1.23;;;20.60;16.00;;;;;;5031921;28;20501;-76
2022/05/28 13:31:15;;;;;;;3.23;0.97;;;20.60;15.40;;;;;;5006413;28;20463;-77
2022/05/28 13:33:43;;;;;;;2.07;0.77;;;20.70;15.50;;;;;;5032455;28;22189;-76
2022/05/28 13:36:14;;;;;;;2.80;0.90;;;20.70;15.90;;;;;;5035230;28;21052;-76
2022/05/28 13:38:45;;;;;;;0.87;0.53;;;21.10;14.20;;;;;;5050697;28;20474;-77